Cromwell, Minnesota
Current Conditions -  °F | °C
As of 6:57 AM on Saturday 25 Oct 2014 (Local Time) from KCOQ Reporting Station
Clear Clear  
Wind Chill: 41°   Ceiling: Unl
Heat Index: 46°   Visibility: 10mi
Dew Point: 30°   Wind: 10mph
Humidity: 53%   Direction: 280°W
Pressure: 29.89"   Gusts: 17mph
Location:  46.68°N, 92.88°W
Report Text: KCOQ 251157Z AUTO 28009G15KT 10SM CLR 08/M01 A2989 RMK AO2
Loading
Personal Weather Stations






























Interactive Weather Map
Tropical Storm Tracking
New forecast layout! Learn more

10-Day Weather Forecast

Advertisements
Track Severe Weather on mobile